sensor_id;sensor_type;location;lat;lon;timestamp;P1;durP1;ratioP1;P2;durP2;ratioP2
63370;SDS011;49504;48.336;14.472;2023-05-27T00:00:58;4.97;;;2.78;;
63370;SDS011;49504;48.336;14.472;2023-05-27T00:05:25;5.18;;;2.22;;
63370;SDS011;49504;48.336;14.472;2023-05-27T00:09:11;4.13;;;1.92;;
63370;SDS011;49504;48.336;14.472;2023-05-27T00:12:32;5.40;;;2.22;;
63370;SDS011;49504;48.336;14.472;2023-05-27T00:15:53;4.40;;;2.40;;
63370;SDS011;49504;48.336;14.472;2023-05-27T00:19:15;5.13;;;2.40;;
63370;SDS011;49504;48.336;14.472;2023-05-27T00:22:36;4.75;;;1.98;;
63370;SDS011;49504;48.336;14.472;2023-05-27T00:25:58;4.07;;;1.88;;
63370;SDS011;49504;48.336;14.472;2023-05-27T00:29:19;5.05;;;2.53;;
63370;SDS011;49504;48.336;14.472;2023-05-27T00:32:41;4.88;;;2.30;;
63370;SDS011;49504;48.336;14.472;2023-05-27T00:36:02;4.20;;;2.30;;
63370;SDS011;49504;48.336;14.472;2023-05-27T00:39:24;3.95;;;2.00;;
63370;SDS011;49504;48.336;14.472;2023-05-27T00:42:46;4.22;;;2.30;;
63370;SDS011;49504;48.336;14.472;2023-05-27T00:46:07;4.47;;;2.05;;
63370;SDS011;49504;48.336;14.472;2023-05-27T00:51:42;3.65;;;2.00;;
63370;SDS011;49504;48.336;14.472;2023-05-27T00:55:04;4.28;;;2.03;;
63370;SDS011;49504;48.336;14.472;2023-05-27T00:58:27;3.97;;;1.55;;
63370;SDS011;49504;48.336;14.472;2023-05-27T01:01:49;4.88;;;2.03;;
63370;SDS011;49504;48.336;14.472;2023-05-27T01:05:10;4.30;;;2.20;;
63370;SDS011;49504;48.336;14.472;2023-05-27T01:08:37;3.97;;;1.92;;
63370;SDS011;49504;48.336;14.472;2023-05-27T01:12:08;4.35;;;2.35;;
63370;SDS011;49504;48.336;14.472;2023-05-27T01:15:38;4.38;;;2.17;;
63370;SDS011;49504;48.336;14.472;2023-05-27T01:19:00;4.47;;;2.20;;
63370;SDS011;49504;48.336;14.472;2023-05-27T01:22:27;4.90;;;2.05;;
63370;SDS011;49504;48.336;14.472;2023-05-27T01:25:50;4.22;;;2.05;;
63370;SDS011;49504;48.336;14.472;2023-05-27T01:29:11;4.22;;;2.10;;
63370;SDS011;49504;48.336;14.472;2023-05-27T01:32:43;4.43;;;2.05;;
63370;SDS011;49504;48.336;14.472;2023-05-27T01:36:22;4.47;;;2.13;;
63370;SDS011;49504;48.336;14.472;2023-05-27T01:39:49;4.50;;;1.80;;
63370;SDS011;49504;48.336;14.472;2023-05-27T01:43:11;4.80;;;2.13;;
63370;SDS011;49504;48.336;14.472;2023-05-27T01:46:34;4.38;;;1.92;;
63370;SDS011;49504;48.336;14.472;2023-05-27T01:49:56;5.20;;;2.47;;
63370;SDS011;49504;48.336;14.472;2023-05-27T01:53:17;6.18;;;2.90;;
63370;SDS011;49504;48.336;14.472;2023-05-27T01:56:40;4.75;;;1.73;;
63370;SDS011;49504;48.336;14.472;2023-05-27T02:00:01;4.53;;;2.30;;
63370;SDS011;49504;48.336;14.472;2023-05-27T02:03:23;3.80;;;1.75;;
63370;SDS011;49504;48.336;14.472;2023-05-27T02:06:44;4.72;;;2.00;;
63370;SDS011;49504;48.336;14.472;2023-05-27T02:10:06;3.95;;;1.70;;
63370;SDS011;49504;48.336;14.472;2023-05-27T02:13:29;4.25;;;1.95;;
63370;SDS011;49504;48.336;14.472;2023-05-27T02:16:51;4.90;;;2.38;;
63370;SDS011;49504;48.336;14.472;2023-05-27T02:20:12;4.35;;;1.90;;
63370;SDS011;49504;48.336;14.472;2023-05-27T02:23:33;5.38;;;1.92;;
63370;SDS011;49504;48.336;14.472;2023-05-27T02:26:54;4.65;;;1.95;;
63370;SDS011;49504;48.336;14.472;2023-05-27T02:30:17;4.97;;;2.22;;
63370;SDS011;49504;48.336;14.472;2023-05-27T02:33:39;4.57;;;2.00;;
63370;SDS011;49504;48.336;14.472;2023-05-27T02:37:00;4.05;;;1.90;;
63370;SDS011;49504;48.336;14.472;2023-05-27T02:40:25;4.38;;;1.73;;
63370;SDS011;49504;48.336;14.472;2023-05-27T02:43:48;4.43;;;2.28;;
63370;SDS011;49504;48.336;14.472;2023-05-27T02:47:11;5.18;;;2.35;;
63370;SDS011;49504;48.336;14.472;2023-05-27T02:50:33;4.35;;;2.08;;
63370;SDS011;49504;48.336;14.472;2023-05-27T02:55:38;4.60;;;1.67;;
63370;SDS011;49504;48.336;14.472;2023-05-27T02:58:59;4.05;;;1.83;;
63370;SDS011;49504;48.336;14.472;2023-05-27T03:02:20;4.00;;;1.80;;
63370;SDS011;49504;48.336;14.472;2023-05-27T03:05:41;4.20;;;1.67;;
63370;SDS011;49504;48.336;14.472;2023-05-27T03:09:02;3.58;;;1.50;;
63370;SDS011;49504;48.336;14.472;2023-05-27T03:12:25;3.65;;;1.75;;
63370;SDS011;49504;48.336;14.472;2023-05-27T03:15:46;3.55;;;1.50;;
63370;SDS011;49504;48.336;14.472;2023-05-27T03:19:08;3.95;;;1.50;;
63370;SDS011;49504;48.336;14.472;2023-05-27T03:22:29;4.03;;;1.75;;
63370;SDS011;49504;48.336;14.472;2023-05-27T03:25:50;3.50;;;1.60;;
63370;SDS011;49504;48.336;14.472;2023-05-27T03:29:13;4.43;;;2.03;;
63370;SDS011;49504;48.336;14.472;2023-05-27T03:32:34;4.30;;;1.50;;
63370;SDS011;49504;48.336;14.472;2023-05-27T03:35:56;4.82;;;1.95;;
63370;SDS011;49504;48.336;14.472;2023-05-27T03:39:18;3.40;;;1.50;;
63370;SDS011;49504;48.336;14.472;2023-05-27T03:42:47;4.10;;;2.05;;
63370;SDS011;49504;48.336;14.472;2023-05-27T03:46:14;3.78;;;1.80;;
63370;SDS011;49504;48.336;14.472;2023-05-27T03:50:24;4.20;;;1.35;;
63370;SDS011;49504;48.336;14.472;2023-05-27T03:53:45;4.95;;;1.75;;
63370;SDS011;49504;48.336;14.472;2023-05-27T03:57:06;4.78;;;2.45;;
63370;SDS011;49504;48.336;14.472;2023-05-27T04:00:27;5.20;;;2.10;;
63370;SDS011;49504;48.336;14.472;2023-05-27T04:03:48;5.03;;;1.88;;
63370;SDS011;49504;48.336;14.472;2023-05-27T04:07:11;6.63;;;2.40;;
63370;SDS011;49504;48.336;14.472;2023-05-27T04:10:32;7.50;;;2.78;;
63370;SDS011;49504;48.336;14.472;2023-05-27T04:13:53;6.63;;;2.38;;
63370;SDS011;49504;48.336;14.472;2023-05-27T04:17:14;4.45;;;2.10;;
63370;SDS011;49504;48.336;14.472;2023-05-27T04:20:36;5.00;;;2.50;;
63370;SDS011;49504;48.336;14.472;2023-05-27T04:24:00;6.72;;;2.58;;
63370;SDS011;49504;48.336;14.472;2023-05-27T04:27:23;6.43;;;2.40;;
63370;SDS011;49504;48.336;14.472;2023-05-27T04:30:44;8.18;;;2.60;;
63370;SDS011;49504;48.336;14.472;2023-05-27T04:34:11;6.57;;;2.20;;
63370;SDS011;49504;48.336;14.472;2023-05-27T04:37:32;5.95;;;2.92;;
63370;SDS011;49504;48.336;14.472;2023-05-27T04:40:55;6.43;;;2.45;;
63370;SDS011;49504;48.336;14.472;2023-05-27T04:44:38;4.00;;;2.13;;
63370;SDS011;49504;48.336;14.472;2023-05-27T04:48:00;5.47;;;2.50;;
63370;SDS011;49504;48.336;14.472;2023-05-27T04:51:22;9.73;;;2.65;;
63370;SDS011;49504;48.336;14.472;2023-05-27T04:54:44;5.55;;;2.40;;
63370;SDS011;49504;48.336;14.472;2023-05-27T04:58:19;4.30;;;1.90;;
63370;SDS011;49504;48.336;14.472;2023-05-27T05:01:42;5.70;;;2.13;;
63370;SDS011;49504;48.336;14.472;2023-05-27T05:05:10;7.07;;;2.47;;
63370;SDS011;49504;48.336;14.472;2023-05-27T05:08:31;8.13;;;2.47;;
63370;SDS011;49504;48.336;14.472;2023-05-27T05:11:52;6.63;;;2.45;;
63370;SDS011;49504;48.336;14.472;2023-05-27T05:15:15;5.55;;;2.00;;
63370;SDS011;49504;48.336;14.472;2023-05-27T05:18:36;8.38;;;2.47;;
63370;SDS011;49504;48.336;14.472;2023-05-27T05:21:58;5.65;;;1.98;;
63370;SDS011;49504;48.336;14.472;2023-05-27T05:27:56;4.82;;;2.05;;
63370;SDS011;49504;48.336;14.472;2023-05-27T05:31:18;6.10;;;2.70;;
63370;SDS011;49504;48.336;14.472;2023-05-27T05:34:40;6.47;;;2.88;;
63370;SDS011;49504;48.336;14.472;2023-05-27T05:38:03;5.18;;;2.22;;
63370;SDS011;49504;48.336;14.472;2023-05-27T05:41:25;5.22;;;2.55;;
63370;SDS011;49504;48.336;14.472;2023-05-27T05:44:48;6.57;;;2.20;;
63370;SDS011;49504;48.336;14.472;2023-05-27T05:48:10;4.93;;;2.17;;
63370;SDS011;49504;48.336;14.472;2023-05-27T05:51:34;5.32;;;2.75;;
63370;SDS011;49504;48.336;14.472;2023-05-27T05:54:56;5.38;;;2.30;;
63370;SDS011;49504;48.336;14.472;2023-05-27T05:58:17;6.25;;;2.33;;
63370;SDS011;49504;48.336;14.472;2023-05-27T06:01:41;4.40;;;2.25;;
63370;SDS011;49504;48.336;14.472;2023-05-27T06:05:02;5.05;;;2.72;;
63370;SDS011;49504;48.336;14.472;2023-05-27T06:08:24;5.43;;;2.28;;
63370;SDS011;49504;48.336;14.472;2023-05-27T06:11:58;4.55;;;2.08;;
63370;SDS011;49504;48.336;14.472;2023-05-27T06:15:29;5.78;;;1.98;;
63370;SDS011;49504;48.336;14.472;2023-05-27T06:18:52;5.20;;;2.40;;
63370;SDS011;49504;48.336;14.472;2023-05-27T06:24:06;4.47;;;2.35;;
63370;SDS011;49504;48.336;14.472;2023-05-27T06:27:30;4.55;;;2.33;;
63370;SDS011;49504;48.336;14.472;2023-05-27T06:35:28;6.10;;;1.92;;
63370;SDS011;49504;48.336;14.472;2023-05-27T06:38:49;5.93;;;2.33;;
63370;SDS011;49504;48.336;14.472;2023-05-27T06:42:11;5.93;;;2.28;;
63370;SDS011;49504;48.336;14.472;2023-05-27T06:45:41;5.82;;;2.25;;
63370;SDS011;49504;48.336;14.472;2023-05-27T06:49:27;4.95;;;2.00;;
63370;SDS011;49504;48.336;14.472;2023-05-27T06:52:50;9.35;;;2.50;;
63370;SDS011;49504;48.336;14.472;2023-05-27T06:56:23;5.57;;;2.40;;
63370;SDS011;49504;48.336;14.472;2023-05-27T07:00:03;3.88;;;1.65;;
63370;SDS011;49504;48.336;14.472;2023-05-27T07:03:34;4.60;;;1.73;;
63370;SDS011;49504;48.336;14.472;2023-05-27T07:06:57;4.78;;;2.17;;
63370;SDS011;49504;48.336;14.472;2023-05-27T07:10:20;4.65;;;1.70;;
63370;SDS011;49504;48.336;14.472;2023-05-27T07:13:41;4.00;;;1.58;;
63370;SDS011;49504;48.336;14.472;2023-05-27T07:17:02;5.03;;;1.90;;
63370;SDS011;49504;48.336;14.472;2023-05-27T07:20:24;6.47;;;2.17;;
63370;SDS011;49504;48.336;14.472;2023-05-27T07:23:46;4.50;;;1.92;;
63370;SDS011;49504;48.336;14.472;2023-05-27T07:27:20;4.22;;;1.92;;
63370;SDS011;49504;48.336;14.472;2023-05-27T07:30:48;7.43;;;1.60;;
63370;SDS011;49504;48.336;14.472;2023-05-27T07:34:09;5.05;;;2.05;;
63370;SDS011;49504;48.336;14.472;2023-05-27T07:37:31;5.15;;;1.98;;
63370;SDS011;49504;48.336;14.472;2023-05-27T07:40:52;5.10;;;1.80;;
63370;SDS011;49504;48.336;14.472;2023-05-27T07:44:15;4.05;;;1.77;;
63370;SDS011;49504;48.336;14.472;2023-05-27T07:48:17;4.30;;;1.58;;
63370;SDS011;49504;48.336;14.472;2023-05-27T07:51:38;5.85;;;1.85;;
63370;SDS011;49504;48.336;14.472;2023-05-27T07:54:59;5.05;;;1.88;;
63370;SDS011;49504;48.336;14.472;2023-05-27T07:58:21;4.68;;;1.77;;
63370;SDS011;49504;48.336;14.472;2023-05-27T08:07:08;4.03;;;1.52;;
63370;SDS011;49504;48.336;14.472;2023-05-27T08:10:55;6.57;;;2.08;;
63370;SDS011;49504;48.336;14.472;2023-05-27T08:14:38;5.60;;;1.75;;
63370;SDS011;49504;48.336;14.472;2023-05-27T08:18:02;4.40;;;1.90;;
63370;SDS011;49504;48.336;14.472;2023-05-27T08:21:46;4.72;;;1.95;;
63370;SDS011;49504;48.336;14.472;2023-05-27T08:25:27;7.57;;;1.95;;
63370;SDS011;49504;48.336;14.472;2023-05-27T08:29:07;4.53;;;1.70;;
63370;SDS011;49504;48.336;14.472;2023-05-27T08:32:35;3.70;;;1.70;;
63370;SDS011;49504;48.336;14.472;2023-05-27T08:39:14;5.40;;;1.60;;
63370;SDS011;49504;48.336;14.472;2023-05-27T08:42:45;4.90;;;1.92;;
63370;SDS011;49504;48.336;14.472;2023-05-27T08:46:08;4.28;;;1.80;;
63370;SDS011;49504;48.336;14.472;2023-05-27T08:49:29;6.75;;;2.15;;
63370;SDS011;49504;48.336;14.472;2023-05-27T08:52:52;4.65;;;1.67;;
63370;SDS011;49504;48.336;14.472;2023-05-27T08:56:21;3.97;;;1.75;;
63370;SDS011;49504;48.336;14.472;2023-05-27T08:59:44;5.93;;;1.83;;
63370;SDS011;49504;48.336;14.472;2023-05-27T09:03:06;4.55;;;1.60;;
63370;SDS011;49504;48.336;14.472;2023-05-27T09:06:28;5.65;;;2.30;;
63370;SDS011;49504;48.336;14.472;2023-05-27T09:09:56;3.30;;;1.70;;
63370;SDS011;49504;48.336;14.472;2023-05-27T09:13:26;5.18;;;1.77;;
63370;SDS011;49504;48.336;14.472;2023-05-27T09:16:47;4.13;;;1.98;;
63370;SDS011;49504;48.336;14.472;2023-05-27T09:20:09;7.13;;;2.10;;
63370;SDS011;49504;48.336;14.472;2023-05-27T09:23:31;5.70;;;2.45;;
63370;SDS011;49504;48.336;14.472;2023-05-27T09:26:57;6.57;;;2.53;;
63370;SDS011;49504;48.336;14.472;2023-05-27T09:30:20;5.57;;;2.13;;
63370;SDS011;49504;48.336;14.472;2023-05-27T09:33:42;5.35;;;2.13;;
63370;SDS011;49504;48.336;14.472;2023-05-27T09:37:03;5.15;;;1.75;;
63370;SDS011;49504;48.336;14.472;2023-05-27T09:42:26;5.28;;;2.00;;
63370;SDS011;49504;48.336;14.472;2023-05-27T09:45:47;4.55;;;1.77;;
63370;SDS011;49504;48.336;14.472;2023-05-27T09:49:10;4.13;;;1.60;;
63370;SDS011;49504;48.336;14.472;2023-05-27T09:52:34;4.93;;;1.77;;
63370;SDS011;49504;48.336;14.472;2023-05-27T09:57:13;4.57;;;1.75;;
63370;SDS011;49504;48.336;14.472;2023-05-27T10:00:35;5.88;;;2.00;;
63370;SDS011;49504;48.336;14.472;2023-05-27T10:03:58;4.40;;;1.80;;
63370;SDS011;49504;48.336;14.472;2023-05-27T10:07:26;8.45;;;1.88;;
63370;SDS011;49504;48.336;14.472;2023-05-27T10:10:56;5.83;;;1.80;;
63370;SDS011;49504;48.336;14.472;2023-05-27T10:14:29;4.63;;;1.83;;
63370;SDS011;49504;48.336;14.472;2023-05-27T10:18:02;11.60;;;2.83;;
63370;SDS011;49504;48.336;14.472;2023-05-27T10:21:47;5.25;;;1.73;;
63370;SDS011;49504;48.336;14.472;2023-05-27T10:25:56;4.93;;;2.00;;
63370;SDS011;49504;48.336;14.472;2023-05-27T10:29:34;4.25;;;2.20;;
63370;SDS011;49504;48.336;14.472;2023-05-27T10:32:56;4.18;;;1.80;;
63370;SDS011;49504;48.336;14.472;2023-05-27T10:36:21;3.80;;;1.58;;
63370;SDS011;49504;48.336;14.472;2023-05-27T10:39:52;4.35;;;1.60;;
63370;SDS011;49504;48.336;14.472;2023-05-27T10:43:16;5.45;;;1.40;;
63370;SDS011;49504;48.336;14.472;2023-05-27T10:46:39;6.00;;;2.13;;
63370;SDS011;49504;48.336;14.472;2023-05-27T10:50:09;4.45;;;1.50;;
63370;SDS011;49504;48.336;14.472;2023-05-27T10:53:34;4.18;;;1.73;;
63370;SDS011;49504;48.336;14.472;2023-05-27T10:56:56;4.55;;;1.67;;
63370;SDS011;49504;48.336;14.472;2023-05-27T11:00:20;6.15;;;2.25;;
63370;SDS011;49504;48.336;14.472;2023-05-27T11:03:44;5.30;;;1.83;;
63370;SDS011;49504;48.336;14.472;2023-05-27T11:07:06;4.47;;;1.98;;
63370;SDS011;49504;48.336;14.472;2023-05-27T11:13:06;4.47;;;1.63;;
63370;SDS011;49504;48.336;14.472;2023-05-27T11:16:28;5.80;;;2.35;;
63370;SDS011;49504;48.336;14.472;2023-05-27T11:19:49;6.38;;;2.03;;
63370;SDS011;49504;48.336;14.472;2023-05-27T11:23:10;4.20;;;1.83;;
63370;SDS011;49504;48.336;14.472;2023-05-27T11:28:57;5.45;;;2.00;;
63370;SDS011;49504;48.336;14.472;2023-05-27T11:32:19;5.40;;;1.77;;
63370;SDS011;49504;48.336;14.472;2023-05-27T11:35:41;5.22;;;1.80;;
63370;SDS011;49504;48.336;14.472;2023-05-27T11:41:17;3.65;;;1.63;;
63370;SDS011;49504;48.336;14.472;2023-05-27T11:44:49;5.10;;;1.80;;
63370;SDS011;49504;48.336;14.472;2023-05-27T11:48:11;6.43;;;2.58;;
63370;SDS011;49504;48.336;14.472;2023-05-27T11:51:33;4.60;;;1.88;;
63370;SDS011;49504;48.336;14.472;2023-05-27T11:54:55;6.10;;;1.90;;
63370;SDS011;49504;48.336;14.472;2023-05-27T11:58:17;6.85;;;1.88;;
63370;SDS011;49504;48.336;14.472;2023-05-27T12:05:24;5.10;;;1.75;;
63370;SDS011;49504;48.336;14.472;2023-05-27T12:08:45;4.57;;;1.50;;
63370;SDS011;49504;48.336;14.472;2023-05-27T12:12:07;5.70;;;1.60;;
63370;SDS011;49504;48.336;14.472;2023-05-27T12:15:29;5.00;;;1.80;;
63370;SDS011;49504;48.336;14.472;2023-05-27T12:22:54;7.55;;;2.22;;
63370;SDS011;49504;48.336;14.472;2023-05-27T12:26:16;4.70;;;1.67;;
63370;SDS011;49504;48.336;14.472;2023-05-27T12:29:37;3.75;;;1.55;;
63370;SDS011;49504;48.336;14.472;2023-05-27T12:33:00;5.68;;;1.83;;
63370;SDS011;49504;48.336;14.472;2023-05-27T12:36:22;5.18;;;1.90;;
63370;SDS011;49504;48.336;14.472;2023-05-27T12:39:44;5.45;;;1.77;;
63370;SDS011;49504;48.336;14.472;2023-05-27T12:44:42;6.63;;;1.75;;
63370;SDS011;49504;48.336;14.472;2023-05-27T12:49:27;5.35;;;1.80;;
63370;SDS011;49504;48.336;14.472;2023-05-27T12:52:48;5.82;;;2.10;;
63370;SDS011;49504;48.336;14.472;2023-05-27T12:56:09;4.82;;;1.90;;
63370;SDS011;49504;48.336;14.472;2023-05-27T12:59:31;7.15;;;2.30;;
63370;SDS011;49504;48.336;14.472;2023-05-27T13:02:52;7.07;;;2.05;;
63370;SDS011;49504;48.336;14.472;2023-05-27T13:09:06;4.32;;;2.03;;
63370;SDS011;49504;48.336;14.472;2023-05-27T13:14:38;6.63;;;2.05;;
63370;SDS011;49504;48.336;14.472;2023-05-27T13:18:00;9.02;;;1.98;;
63370;SDS011;49504;48.336;14.472;2023-05-27T13:21:21;5.43;;;2.05;;
63370;SDS011;49504;48.336;14.472;2023-05-27T13:24:42;7.85;;;1.67;;
63370;SDS011;49504;48.336;14.472;2023-05-27T13:28:03;4.43;;;1.88;;
63370;SDS011;49504;48.336;14.472;2023-05-27T13:31:27;5.57;;;1.95;;
63370;SDS011;49504;48.336;14.472;2023-05-27T13:34:49;3.70;;;1.67;;
63370;SDS011;49504;48.336;14.472;2023-05-27T13:38:14;6.53;;;2.10;;
63370;SDS011;49504;48.336;14.472;2023-05-27T13:41:35;4.70;;;1.50;;
63370;SDS011;49504;48.336;14.472;2023-05-27T13:44:56;5.63;;;2.15;;
63370;SDS011;49504;48.336;14.472;2023-05-27T13:50:31;8.30;;;2.75;;
63370;SDS011;49504;48.336;14.472;2023-05-27T13:53:52;5.15;;;2.00;;
63370;SDS011;49504;48.336;14.472;2023-05-27T13:57:13;6.38;;;2.47;;
63370;SDS011;49504;48.336;14.472;2023-05-27T14:00:35;7.07;;;2.45;;
63370;SDS011;49504;48.336;14.472;2023-05-27T14:03:56;6.53;;;2.03;;
63370;SDS011;49504;48.336;14.472;2023-05-27T14:07:18;6.15;;;2.30;;
63370;SDS011;49504;48.336;14.472;2023-05-27T14:10:40;5.05;;;2.15;;
63370;SDS011;49504;48.336;14.472;2023-05-27T14:14:01;5.28;;;2.35;;
63370;SDS011;49504;48.336;14.472;2023-05-27T14:17:22;6.50;;;2.92;;
63370;SDS011;49504;48.336;14.472;2023-05-27T14:20:43;8.75;;;3.33;;
63370;SDS011;49504;48.336;14.472;2023-05-27T14:24:06;7.53;;;3.97;;
63370;SDS011;49504;48.336;14.472;2023-05-27T14:27:27;6.43;;;4.10;;
63370;SDS011;49504;48.336;14.472;2023-05-27T14:30:48;7.63;;;2.75;;
63370;SDS011;49504;48.336;14.472;2023-05-27T14:34:09;5.32;;;2.05;;
63370;SDS011;49504;48.336;14.472;2023-05-27T14:37:30;5.18;;;2.30;;
63370;SDS011;49504;48.336;14.472;2023-05-27T14:40:53;4.55;;;2.15;;
63370;SDS011;49504;48.336;14.472;2023-05-27T14:44:14;6.50;;;2.15;;
63370;SDS011;49504;48.336;14.472;2023-05-27T14:47:36;3.58;;;1.60;;
63370;SDS011;49504;48.336;14.472;2023-05-27T14:50:57;5.55;;;2.00;;
63370;SDS011;49504;48.336;14.472;2023-05-27T14:54:41;6.40;;;2.17;;
63370;SDS011;49504;48.336;14.472;2023-05-27T14:58:02;5.07;;;1.73;;
63370;SDS011;49504;48.336;14.472;2023-05-27T15:01:24;8.07;;;1.73;;
63370;SDS011;49504;48.336;14.472;2023-05-27T15:06:26;5.30;;;2.03;;
63370;SDS011;49504;48.336;14.472;2023-05-27T15:09:48;4.25;;;1.50;;
63370;SDS011;49504;48.336;14.472;2023-05-27T15:13:09;4.20;;;1.80;;
63370;SDS011;49504;48.336;14.472;2023-05-27T15:16:30;4.57;;;2.00;;
63370;SDS011;49504;48.336;14.472;2023-05-27T15:19:51;3.08;;;1.55;;
63370;SDS011;49504;48.336;14.472;2023-05-27T15:25:43;3.33;;;1.70;;
63370;SDS011;49504;48.336;14.472;2023-05-27T15:29:05;5.15;;;1.95;;
63370;SDS011;49504;48.336;14.472;2023-05-27T15:32:26;8.35;;;1.58;;
63370;SDS011;49504;48.336;14.472;2023-05-27T15:35:47;5.18;;;1.40;;
63370;SDS011;49504;48.336;14.472;2023-05-27T15:41:19;5.97;;;1.45;;
63370;SDS011;49504;48.336;14.472;2023-05-27T15:44:40;4.45;;;1.83;;
63370;SDS011;49504;48.336;14.472;2023-05-27T15:48:01;5.90;;;1.75;;
63370;SDS011;49504;48.336;14.472;2023-05-27T15:51:23;4.25;;;1.60;;
63370;SDS011;49504;48.336;14.472;2023-05-27T15:54:44;3.58;;;1.50;;
63370;SDS011;49504;48.336;14.472;2023-05-27T15:58:06;3.95;;;1.40;;
63370;SDS011;49504;48.336;14.472;2023-05-27T16:01:27;3.72;;;1.52;;
63370;SDS011;49504;48.336;14.472;2023-05-27T16:04:48;5.28;;;1.40;;
63370;SDS011;49504;48.336;14.472;2023-05-27T16:08:10;3.92;;;1.48;;
63370;SDS011;49504;48.336;14.472;2023-05-27T16:11:31;3.80;;;1.42;;
63370;SDS011;49504;48.336;14.472;2023-05-27T16:14:53;4.65;;;1.58;;
63370;SDS011;49504;48.336;14.472;2023-05-27T16:18:15;6.20;;;1.60;;
63370;SDS011;49504;48.336;14.472;2023-05-27T16:21:37;6.50;;;1.73;;
63370;SDS011;49504;48.336;14.472;2023-05-27T16:24:58;6.43;;;1.60;;
63370;SDS011;49504;48.336;14.472;2023-05-27T16:28:19;5.07;;;1.65;;
63370;SDS011;49504;48.336;14.472;2023-05-27T16:31:42;5.55;;;1.52;;
63370;SDS011;49504;48.336;14.472;2023-05-27T16:35:56;6.10;;;1.63;;
63370;SDS011;49504;48.336;14.472;2023-05-27T16:40:51;3.20;;;1.10;;
63370;SDS011;49504;48.336;14.472;2023-05-27T16:44:12;5.57;;;1.90;;
63370;SDS011;49504;48.336;14.472;2023-05-27T16:47:33;5.18;;;1.92;;
63370;SDS011;49504;48.336;14.472;2023-05-27T16:52:08;4.55;;;1.23;;
63370;SDS011;49504;48.336;14.472;2023-05-27T16:55:29;3.90;;;1.63;;
63370;SDS011;49504;48.336;14.472;2023-05-27T16:58:50;3.58;;;1.33;;
63370;SDS011;49504;48.336;14.472;2023-05-27T17:02:12;4.43;;;1.50;;
63370;SDS011;49504;48.336;14.472;2023-05-27T17:07:51;4.68;;;1.60;;
63370;SDS011;49504;48.336;14.472;2023-05-27T17:11:12;4.78;;;1.85;;
63370;SDS011;49504;48.336;14.472;2023-05-27T17:15:13;3.85;;;1.33;;
63370;SDS011;49504;48.336;14.472;2023-05-27T17:18:34;4.38;;;1.42;;
63370;SDS011;49504;48.336;14.472;2023-05-27T17:21:56;3.97;;;1.33;;
63370;SDS011;49504;48.336;14.472;2023-05-27T17:25:17;2.90;;;1.13;;
63370;SDS011;49504;48.336;14.472;2023-05-27T17:28:38;3.72;;;1.20;;
63370;SDS011;49504;48.336;14.472;2023-05-27T17:32:00;6.95;;;1.42;;
63370;SDS011;49504;48.336;14.472;2023-05-27T17:35:22;5.18;;;1.55;;
63370;SDS011;49504;48.336;14.472;2023-05-27T17:38:43;3.85;;;1.20;;
63370;SDS011;49504;48.336;14.472;2023-05-27T17:42:04;4.20;;;1.25;;
63370;SDS011;49504;48.336;14.472;2023-05-27T17:45:25;3.80;;;1.38;;
63370;SDS011;49504;48.336;14.472;2023-05-27T17:48:48;3.55;;;1.25;;
63370;SDS011;49504;48.336;14.472;2023-05-27T17:53:25;3.75;;;1.10;;
63370;SDS011;49504;48.336;14.472;2023-05-27T17:56:46;2.83;;;1.15;;
63370;SDS011;49504;48.336;14.472;2023-05-27T18:00:07;4.97;;;1.23;;
63370;SDS011;49504;48.336;14.472;2023-05-27T18:03:29;3.45;;;1.08;;
63370;SDS011;49504;48.336;14.472;2023-05-27T18:06:50;3.75;;;1.40;;
63370;SDS011;49504;48.336;14.472;2023-05-27T18:10:13;3.42;;;1.25;;
63370;SDS011;49504;48.336;14.472;2023-05-27T18:13:34;3.25;;;1.30;;
63370;SDS011;49504;48.336;14.472;2023-05-27T18:16:55;3.30;;;1.02;;
63370;SDS011;49504;48.336;14.472;2023-05-27T18:20:16;3.75;;;1.50;;
63370;SDS011;49504;48.336;14.472;2023-05-27T18:23:37;4.05;;;1.20;;
63370;SDS011;49504;48.336;14.472;2023-05-27T18:27:00;4.97;;;1.35;;
63370;SDS011;49504;48.336;14.472;2023-05-27T18:30:21;3.22;;;1.00;;
63370;SDS011;49504;48.336;14.472;2023-05-27T18:33:42;3.38;;;1.20;;
63370;SDS011;49504;48.336;14.472;2023-05-27T18:37:03;2.85;;;1.00;;
63370;SDS011;49504;48.336;14.472;2023-05-27T18:40:24;4.47;;;1.48;;
63370;SDS011;49504;48.336;14.472;2023-05-27T18:43:47;3.70;;;1.40;;
63370;SDS011;49504;48.336;14.472;2023-05-27T18:47:08;3.25;;;0.98;;
63370;SDS011;49504;48.336;14.472;2023-05-27T18:50:29;3.08;;;1.10;;
63370;SDS011;49504;48.336;14.472;2023-05-27T18:53:51;5.25;;;1.23;;
63370;SDS011;49504;48.336;14.472;2023-05-27T18:57:12;3.45;;;1.35;;
63370;SDS011;49504;48.336;14.472;2023-05-27T19:00:35;3.30;;;1.15;;
63370;SDS011;49504;48.336;14.472;2023-05-27T19:03:56;2.97;;;1.10;;
63370;SDS011;49504;48.336;14.472;2023-05-27T19:07:17;3.55;;;1.20;;
63370;SDS011;49504;48.336;14.472;2023-05-27T19:10:39;3.88;;;1.40;;
63370;SDS011;49504;48.336;14.472;2023-05-27T19:14:00;3.47;;;1.33;;
63370;SDS011;49504;48.336;14.472;2023-05-27T19:17:22;3.92;;;1.30;;
63370;SDS011;49504;48.336;14.472;2023-05-27T19:20:43;3.38;;;1.08;;
63370;SDS011;49504;48.336;14.472;2023-05-27T19:24:05;2.53;;;1.05;;
63370;SDS011;49504;48.336;14.472;2023-05-27T19:29:30;8.10;;;1.48;;
63370;SDS011;49504;48.336;14.472;2023-05-27T19:32:51;3.10;;;1.10;;
63370;SDS011;49504;48.336;14.472;2023-05-27T19:36:12;4.30;;;1.30;;
63370;SDS011;49504;48.336;14.472;2023-05-27T19:39:33;4.05;;;1.20;;
63370;SDS011;49504;48.336;14.472;2023-05-27T19:43:26;3.17;;;1.08;;
63370;SDS011;49504;48.336;14.472;2023-05-27T19:46:47;4.05;;;1.35;;
63370;SDS011;49504;48.336;14.472;2023-05-27T19:50:09;4.35;;;1.05;;
63370;SDS011;49504;48.336;14.472;2023-05-27T19:53:30;4.05;;;1.17;;
63370;SDS011;49504;48.336;14.472;2023-05-27T19:56:51;4.20;;;1.42;;
63370;SDS011;49504;48.336;14.472;2023-05-27T20:00:14;4.55;;;1.33;;
63370;SDS011;49504;48.336;14.472;2023-05-27T20:03:36;3.60;;;1.10;;
63370;SDS011;49504;48.336;14.472;2023-05-27T20:06:57;2.90;;;1.08;;
63370;SDS011;49504;48.336;14.472;2023-05-27T20:10:19;3.80;;;1.20;;
63370;SDS011;49504;48.336;14.472;2023-05-27T20:13:40;3.13;;;1.30;;
63370;SDS011;49504;48.336;14.472;2023-05-27T20:17:03;3.28;;;1.45;;
63370;SDS011;49504;48.336;14.472;2023-05-27T20:20:24;5.50;;;1.67;;
63370;SDS011;49504;48.336;14.472;2023-05-27T20:23:45;3.28;;;1.10;;
63370;SDS011;49504;48.336;14.472;2023-05-27T20:27:06;3.03;;;1.30;;
63370;SDS011;49504;48.336;14.472;2023-05-27T20:30:27;3.58;;;1.35;;
63370;SDS011;49504;48.336;14.472;2023-05-27T20:33:50;5.13;;;1.88;;
63370;SDS011;49504;48.336;14.472;2023-05-27T20:37:12;4.13;;;1.33;;
63370;SDS011;49504;48.336;14.472;2023-05-27T20:40:34;3.90;;;1.40;;
63370;SDS011;49504;48.336;14.472;2023-05-27T20:43:55;4.50;;;1.48;;
63370;SDS011;49504;48.336;14.472;2023-05-27T20:47:16;3.10;;;1.27;;
63370;SDS011;49504;48.336;14.472;2023-05-27T20:50:39;4.30;;;1.65;;
63370;SDS011;49504;48.336;14.472;2023-05-27T20:54:00;4.45;;;1.75;;
63370;SDS011;49504;48.336;14.472;2023-05-27T20:57:21;4.90;;;1.60;;
63370;SDS011;49504;48.336;14.472;2023-05-27T21:00:42;5.38;;;1.63;;
63370;SDS011;49504;48.336;14.472;2023-05-27T21:04:03;4.88;;;1.65;;
63370;SDS011;49504;48.336;14.472;2023-05-27T21:07:26;5.63;;;1.52;;
63370;SDS011;49504;48.336;14.472;2023-05-27T21:10:47;4.55;;;1.60;;
63370;SDS011;49504;48.336;14.472;2023-05-27T21:14:08;3.60;;;1.42;;